Mission Field Livingston US
ICAO: KLVM
IATA: LVM
Category: Medium
Scheduled Services: No

Elevation: 4660 ft
TransAlt. 18000 ft.

Airport Communications:
ASOS:135.275
GREAT FALLS RDO:122.2
CTAF/UNICOM:123

KLVM Zoom In..

If you have problems with the map follow the link
https://www.worldairports.se/pages/airport.php?
ICAO=KLVM

Runways:

(A) RW 04 length 5701 ft width 75 ft
---- / hdg 39

(B) RW 08 length 3762 ft width 125 ft
---- / hdg 78

(C) RW 13 length 2724 ft width 120 ft
---- / hdg 132

(D) RW 22 length 5701 ft width 75 ft
---- / hdg 219

(E) RW 26 length 3762 ft width 125 ft
---- / hdg 258

(F) RW 31 length 2724 ft width 120 ft
---- / hdg 312

Location; KLVM
Day. 25 / Time. 21.53 Zulu
* Altimeter: 29.95
* Temperature: 07° c. 44.6°f.
* Wind from: 270° Speed 18 kn with Gusts up to 25 kn.
Dewpoint: -10° c.
Visibility: 10 Statute Miles.
Clouds: Broken 7000 ft.
Clouds: Overcast 11000 ft.

KLVM 252153Z AUTO 27018G25KT 10SM BKN070 OVC110 07/M10 A2995 RMK AO2 PK WND 28026/2133 SLP150 T00721100


Wind From 270°
Speed 18 kn.

 
 
jpsmedia worldairports.se 2020   terms of use